Time;durP1;ratioP1;P1;durP2;ratioP2;P2;SDS_P1;SDS_P2;PMS_P1;PMS_P2;Temp;Humidity;BMP_temperature;BMP_pressure;BME280_temperature;BME280_humidity;BME280_pressure;Samples;Min_cycle;Max_cycle;Signal;HPM_P1;HPM_P2
2023/10/10 00:02:21;;;;;;;58.45;28.05;;;;;;;;;;4992442;28;20015;-81
2023/10/10 00:04:47;;;;;;;55.60;28.13;;;;;;;;;;4988811;28;20085;-82
2023/10/10 00:07:18;;;;;;;65.30;29.52;;;;;;;;;;4988311;28;21423;-83
2023/10/10 00:09:45;;;;;;;;;;;;;;;;;;4972701;28;20097;-82
2023/10/10 00:12:13;;;;;;;66.38;29.90;;;;;;;;;;4967063;28;19926;-82
2023/10/10 00:14:40;;;;;;;51.78;28.60;;;;;;;;;;4953104;28;20039;-83
2023/10/10 00:17:08;;;;;;;59.90;31.27;;;;;;;;;;4975062;28;20042;-82
2023/10/10 00:19:52;;;;;;;61.70;32.50;;;;;;;;;;4974501;28;20166;-82
2023/10/10 00:22:26;;;;;;;70.10;33.17;;;;;;;;;;4947289;28;20100;-83
2023/10/10 00:24:53;;;;;;;70.07;34.67;;;;;;;;;;4970237;28;20039;-84
2023/10/10 00:27:23;;;;;;;65.78;34.70;;;;;;;;;;4949977;28;20034;-82
2023/10/10 00:29:49;;;;;;;75.78;35.97;;;;;;;;;;4968054;28;20031;-85
2023/10/10 00:32:17;;;;;;;82.05;37.00;;;;;;;;;;4970168;28;20493;-82
2023/10/10 00:34:47;;;;;;;89.68;40.50;;;;;;;;;;4955302;28;20042;-82
2023/10/10 00:37:16;;;;;;;80.78;39.75;;;;;;;;;;4966186;28;20057;-82
2023/10/10 00:39:52;;;;;;;80.82;40.22;;;;;;;;;;4952703;28;20133;-82
2023/10/10 00:42:36;;;;;;;83.13;40.70;;;;;;;;;;4975143;28;20035;-82
2023/10/10 00:45:04;;;;;;;83.78;38.38;;;;;;;;;;4950902;28;20551;-80
2023/10/10 00:47:38;;;;;;;83.03;39.17;;;;;;;;;;4982128;28;20031;-81
2023/10/10 00:50:08;;;;;;;83.63;40.60;;;;;;;;;;4992866;28;20051;-82
2023/10/10 00:52:36;;;;;;;76.20;39.58;;;;;;;;;;4970625;28;20110;-82
2023/10/10 00:55:04;;;;;;;78.38;40.20;;;;;;;;;;4981991;28;20015;-84
2023/10/10 00:57:35;;;;;;;78.03;39.53;;;;;;;;;;4950744;28;20031;-82
2023/10/10 01:00:07;;;;;;;86.05;40.38;;;;;;;;;;4969619;28;20118;-82
2023/10/10 01:02:34;;;;;;;80.45;38.28;;;;;;;;;;4949688;28;20027;-81
2023/10/10 01:05:12;;;;;;;86.78;42.10;;;;;;;;;;4948461;28;20058;-83
2023/10/10 01:07:38;;;;;;;81.93;40.75;;;;;;;;;;4967834;28;20034;-83
2023/10/10 01:10:11;;;;;;;82.22;39.45;;;;;;;;;;4953440;28;20076;-82
2023/10/10 01:12:42;;;;;;;91.60;40.95;;;;;;;;;;4946522;28;20031;-82
2023/10/10 01:15:15;;;;;;;90.25;41.85;;;;;;;;;;4954539;28;20125;-82
2023/10/10 01:17:43;;;;;;;92.70;42.05;;;;;;;;;;4970775;28;20065;-82
2023/10/10 01:20:33;;;;;;;110.60;44.70;;;;;;;;;;4960873;28;20031;-82
2023/10/10 01:23:00;;;;;;;111.63;48.10;;;;;;;;;;4963056;28;20049;-83
2023/10/10 01:28:05;;;;;;;101.20;45.30;;;;;;;;;;4950204;28;20037;-82
2023/10/10 01:30:56;;;;;;;107.22;47.75;;;;;;;;;;4969836;28;20043;-82
2023/10/10 01:33:29;;;;;;;125.03;48.85;;;;;;;;;;4971312;28;20038;-80
2023/10/10 01:35:56;;;;;;;111.30;46.58;;;;;;;;;;4957739;28;20019;-80
2023/10/10 01:38:55;;;;;;;106.80;47.80;;;;;;;;;;4963784;28;20039;-82
2023/10/10 01:41:31;;;;;;;103.00;46.85;;;;;;;;;;4972005;28;20042;-83
2023/10/10 01:44:08;;;;;;;116.80;48.05;;;;;;;;;;4956072;28;20031;-82
2023/10/10 01:46:35;;;;;;;141.38;54.17;;;;;;;;;;4948489;28;20427;-81
2023/10/10 01:49:02;;;;;;;125.28;48.67;;;;;;;;;;4951878;28;20078;-83
2023/10/10 01:51:42;;;;;;;123.35;48.05;;;;;;;;;;4949446;28;20065;-82
2023/10/10 01:54:14;;;;;;;135.68;51.38;;;;;;;;;;4948133;28;20162;-82
2023/10/10 01:56:40;;;;;;;148.25;52.03;;;;;;;;;;4970920;28;20094;-83
2023/10/10 01:59:17;;;;;;;123.43;47.55;;;;;;;;;;4971670;28;20728;-83
2023/10/10 02:01:43;;;;;;;161.90;53.53;;;;;;;;;;4976182;28;20022;-81
2023/10/10 02:04:10;;;;;;;149.68;51.20;;;;;;;;;;4963542;28;20419;-82
2023/10/10 02:06:39;;;;;;;147.75;53.72;;;;;;;;;;4957796;28;20039;-83
2023/10/10 02:09:12;;;;;;;165.90;56.33;;;;;;;;;;4948252;28;20487;-82
2023/10/10 02:11:49;;;;;;;150.85;54.03;;;;;;;;;;4949348;28;20441;-82
2023/10/10 02:14:18;;;;;;;208.90;66.13;;;;;;;;;;4967305;28;20023;-82
2023/10/10 02:16:48;;;;;;;235.60;71.88;;;;;;;;;;4951516;28;20110;-82
2023/10/10 02:19:25;;;;;;;245.25;74.65;;;;;;;;;;4965846;28;20039;-81
2023/10/10 02:22:03;;;;;;;328.52;77.55;;;;;;;;;;4973901;28;20062;-83
2023/10/10 02:26:56;;;;;;;251.65;75.40;;;;;;;;;;4985095;28;20019;-80
2023/10/10 02:32:13;;;;;;;258.42;76.65;;;;;;;;;;4963573;28;20058;-83
2023/10/10 02:34:42;;;;;;;262.38;77.18;;;;;;;;;;4958966;28;20043;-82
2023/10/10 02:40:07;;;;;;;311.70;78.18;;;;;;;;;;4947011;28;20500;-82
2023/10/10 02:42:33;;;;;;;305.27;75.85;;;;;;;;;;4973588;28;20058;-83
2023/10/10 02:45:02;;;;;;;467.23;70.68;;;;;;;;;;4956440;28;20031;-81
2023/10/10 02:47:31;;;;;;;439.73;71.18;;;;;;;;;;4950806;29;20054;-83
2023/10/10 02:50:39;;;;;;;289.83;79.28;;;;;;;;;;4971582;28;20078;-82
2023/10/10 02:53:07;;;;;;;309.58;86.13;;;;;;;;;;4953657;28;20054;-82
2023/10/10 02:55:33;;;;;;;296.70;84.60;;;;;;;;;;4975354;28;20039;-82
2023/10/10 02:58:00;;;;;;;347.73;94.00;;;;;;;;;;4957396;28;20101;-81
2023/10/10 03:02:58;;;;;;;364.77;94.72;;;;;;;;;;4971521;28;20086;-83
2023/10/10 03:05:43;;;;;;;320.50;92.30;;;;;;;;;;4993598;28;20057;-82
2023/10/10 03:08:16;;;;;;;311.60;93.95;;;;;;;;;;4974188;28;20149;-82
2023/10/10 03:10:46;;;;;;;374.02;99.25;;;;;;;;;;4993289;28;20015;-80
2023/10/10 03:13:35;;;;;;;374.25;101.30;;;;;;;;;;4966589;28;20055;-80
2023/10/10 03:29:47;;;;;;;397.27;112.07;;;;;;;;;;4981179;28;20042;-83
2023/10/10 03:34:55;;;;;;;380.23;111.10;;;;;;;;;;4950127;28;20039;-84
2023/10/10 03:39:57;;;;;;;366.60;106.03;;;;;;;;;;4956702;28;20062;-82
2023/10/10 05:24:51;;;;;;;335.02;119.78;;;;;;;;;;4946507;29;20063;-84
2023/10/10 05:27:29;;;;;;;359.95;124.10;;;;;;;;;;4965846;28;20026;-83
2023/10/10 05:29:56;;;;;;;341.13;124.45;;;;;;;;;;4983566;28;20035;-82
2023/10/10 05:32:22;;;;;;;337.83;122.90;;;;;;;;;;4971488;28;20035;-80
2023/10/10 05:34:52;;;;;;;343.90;127.13;;;;;;;;;;4987375;28;20058;-81
2023/10/10 05:37:18;;;;;;;352.45;131.52;;;;;;;;;;4996617;28;20011;-79
2023/10/10 05:39:46;;;;;;;356.92;129.75;;;;;;;;;;4988006;28;20535;-83
2023/10/10 05:42:20;;;;;;;345.38;132.50;;;;;;;;;;4958826;28;20507;-81
2023/10/10 05:44:49;;;;;;;347.73;129.57;;;;;;;;;;4973895;28;20049;-81
2023/10/10 05:47:16;;;;;;;348.88;129.18;;;;;;;;;;4971166;28;20027;-80
2023/10/10 05:49:42;;;;;;;355.63;130.38;;;;;;;;;;4966092;28;20054;-79
2023/10/10 05:52:08;;;;;;;343.85;133.20;;;;;;;;;;4954087;28;20064;-80
2023/10/10 05:54:35;;;;;;;354.00;132.63;;;;;;;;;;4966481;28;20035;-81
2023/10/10 05:57:02;;;;;;;367.77;131.25;;;;;;;;;;4967011;28;20403;-81
2023/10/10 05:59:28;;;;;;;345.20;126.43;;;;;;;;;;4951153;28;20039;-81
2023/10/10 06:01:55;;;;;;;358.00;129.27;;;;;;;;;;4966161;28;20046;-79
2023/10/10 06:04:21;;;;;;;341.55;129.05;;;;;;;;;;4944519;28;20349;-80
2023/10/10 06:06:47;;;;;;;337.45;127.53;;;;;;;;;;4963163;28;20039;-80
2023/10/10 06:09:18;;;;;;;346.13;127.80;;;;;;;;;;4973277;28;20148;-80
2023/10/10 06:11:47;;;;;;;346.38;127.63;;;;;;;;;;4970808;28;20085;-79
2023/10/10 06:14:14;;;;;;;358.20;130.45;;;;;;;;;;4969158;28;20038;-80
2023/10/10 06:16:40;;;;;;;335.83;128.18;;;;;;;;;;4973084;28;20041;-78
2023/10/10 06:19:06;;;;;;;349.10;132.93;;;;;;;;;;4973928;28;20769;-80
2023/10/10 06:21:32;;;;;;;357.38;134.07;;;;;;;;;;4976120;28;20122;-79
2023/10/10 06:23:58;;;;;;;351.05;133.60;;;;;;;;;;4961781;28;20500;-79
2023/10/10 06:26:25;;;;;;;347.15;134.93;;;;;;;;;;4963889;28;20034;-80
2023/10/10 06:28:53;;;;;;;340.20;139.30;;;;;;;;;;4962344;28;20106;-81
2023/10/10 06:31:19;;;;;;;338.52;137.23;;;;;;;;;;4968552;28;20035;-80
2023/10/10 06:33:51;;;;;;;352.20;139.88;;;;;;;;;;4975664;28;20031;-79
2023/10/10 06:36:32;;;;;;;342.85;140.55;;;;;;;;;;4952760;28;20027;-79
2023/10/10 06:41:38;;;;;;;320.98;137.23;;;;;;;;;;4970920;28;20090;-80
2023/10/10 06:44:05;;;;;;;322.85;138.35;;;;;;;;;;4965422;28;20037;-79
2023/10/10 06:46:32;;;;;;;312.23;139.95;;;;;;;;;;4952822;28;20057;-79
2023/10/10 06:49:07;;;;;;;314.05;139.82;;;;;;;;;;4964206;28;20038;-81
2023/10/10 06:51:39;;;;;;;288.08;133.38;;;;;;;;;;4969084;28;20042;-79
2023/10/10 06:54:08;;;;;;;303.50;134.27;;;;;;;;;;4970295;28;20043;-81
2023/10/10 06:57:16;;;;;;;289.58;131.32;;;;;;;;;;4970941;28;20037;-80
2023/10/10 06:59:27;;;;;;;279.02;131.63;;;;;;;;;;4966267;28;20046;-78
2023/10/10 07:04:42;;;;;;;250.20;124.78;;;;;;;;;;4970755;28;20041;-77
2023/10/10 07:07:10;;;;;;;247.43;121.90;;;;;;;;;;4974156;28;20038;-78
2023/10/10 07:09:37;;;;;;;240.50;117.50;;;;;;;;;;4951987;28;20078;-77
2023/10/10 07:12:09;;;;;;;233.82;115.50;;;;;;;;;;4984459;28;20041;-79
2023/10/10 07:14:40;;;;;;;221.35;112.53;;;;;;;;;;4965065;28;20045;-79
2023/10/10 07:17:11;;;;;;;;;;;;;;;;;;4975417;28;20126;-77
2023/10/10 07:19:54;;;;;;;226.15;110.95;;;;;;;;;;4964866;28;20049;-79
2023/10/10 07:22:22;;;;;;;211.48;108.47;;;;;;;;;;4963892;28;20031;-80
2023/10/10 07:25:06;;;;;;;198.50;106.80;;;;;;;;;;4954603;28;20037;-80
2023/10/10 07:27:32;;;;;;;174.25;100.28;;;;;;;;;;4967641;28;20035;-78
2023/10/10 07:29:59;;;;;;;184.80;102.88;;;;;;;;;;4961080;28;20036;-80
2023/10/10 07:32:29;;;;;;;169.23;97.43;;;;;;;;;;4950721;28;20443;-79
2023/10/10 07:34:55;;;;;;;173.55;95.13;;;;;;;;;;4971569;28;20062;-82
2023/10/10 07:37:29;;;;;;;154.82;91.30;;;;;;;;;;4967054;28;20121;-80
2023/10/10 07:39:55;;;;;;;144.43;84.20;;;;;;;;;;4969638;28;20037;-80
2023/10/10 07:42:34;;;;;;;145.95;81.22;;;;;;;;;;4969302;28;20432;-79
2023/10/10 07:45:13;;;;;;;131.43;78.20;;;;;;;;;;4971458;28;20037;-80
2023/10/10 07:48:38;;;;;;;129.30;76.90;;;;;;;;;;4966723;28;20042;-79
2023/10/10 07:51:05;;;;;;;119.10;71.93;;;;;;;;;;4968751;28;20057;-80
2023/10/10 07:53:34;;;;;;;127.55;67.03;;;;;;;;;;4977563;28;20019;-81
2023/10/10 07:56:03;;;;;;;107.97;64.53;;;;;;;;;;4966713;28;20027;-82
2023/10/10 07:58:49;;;;;;;103.30;60.05;;;;;;;;;;4973761;28;20146;-80
2023/10/10 08:01:16;;;;;;;96.47;59.40;;;;;;;;;;4990692;28;20037;-81
2023/10/10 08:03:45;;;;;;;90.10;57.03;;;;;;;;;;4982214;28;20007;-81
2023/10/10 08:06:16;;;;;;;80.90;52.20;;;;;;;;;;4959130;28;20077;-80
2023/10/10 08:08:43;;;;;;;76.63;50.42;;;;;;;;;;4980903;28;20051;-80
2023/10/10 08:11:25;;;;;;;81.88;51.60;;;;;;;;;;4984322;28;20019;-80
2023/10/10 08:13:52;;;;;;;74.00;51.55;;;;;;;;;;4975512;28;20074;-82
2023/10/10 08:16:25;;;;;;;73.68;47.45;;;;;;;;;;4974337;28;20059;-81
2023/10/10 08:18:55;;;;;;;69.53;46.38;;;;;;;;;;4957728;28;20325;-82
2023/10/10 08:21:25;;;;;;;74.82;48.65;;;;;;;;;;4965412;28;20031;-80
2023/10/10 08:23:58;;;;;;;70.13;47.22;;;;;;;;;;4966121;28;20038;-80
2023/10/10 08:26:29;;;;;;;70.25;46.78;;;;;;;;;;4962982;28;20046;-80
2023/10/10 08:28:55;;;;;;;74.38;44.63;;;;;;;;;;4947170;28;20517;-80
2023/10/10 08:31:24;;;;;;;65.70;44.88;;;;;;;;;;4950361;28;20043;-80
2023/10/10 08:33:51;;;;;;;67.53;44.55;;;;;;;;;;4970550;28;20146;-81
2023/10/10 08:36:24;;;;;;;70.50;43.95;;;;;;;;;;4965589;28;20079;-79
2023/10/10 08:38:50;;;;;;;64.13;43.40;;;;;;;;;;4946528;28;20050;-79
2023/10/10 08:41:20;;;;;;;67.65;42.88;;;;;;;;;;4972881;28;20026;-78
2023/10/10 08:43:53;;;;;;;65.50;44.17;;;;;;;;;;4977121;28;20029;-79
2023/10/10 08:46:26;;;;;;;64.50;44.17;;;;;;;;;;4984097;28;20042;-81
2023/10/10 08:48:52;;;;;;;70.82;44.83;;;;;;;;;;4978737;28;20055;-80
2023/10/10 08:51:19;;;;;;;67.95;44.67;;;;;;;;;;4962474;28;20054;-80
2023/10/10 08:53:45;;;;;;;64.57;43.65;;;;;;;;;;4974825;28;20117;-81
2023/10/10 08:56:14;;;;;;;60.17;42.50;;;;;;;;;;4941251;29;20035;-81
2023/10/10 08:58:42;;;;;;;71.50;41.70;;;;;;;;;;4953433;28;20051;-80
2023/10/10 09:01:08;;;;;;;66.38;40.22;;;;;;;;;;4947021;28;20042;-80
2023/10/10 09:03:35;;;;;;;61.00;41.17;;;;;;;;;;4973840;28;20023;-80
2023/10/10 09:06:14;;;;;;;60.63;39.83;;;;;;;;;;4955294;28;20038;-81
2023/10/10 09:08:43;;;;;;;56.75;39.13;;;;;;;;;;4971756;28;20118;-80
2023/10/10 09:11:11;;;;;;;57.42;37.08;;;;;;;;;;4960623;28;20047;-80
2023/10/10 09:13:54;;;;;;;55.55;36.97;;;;;;;;;;4952676;29;20039;-80
2023/10/10 09:16:40;;;;;;;53.10;37.00;;;;;;;;;;4971019;28;20027;-81
2023/10/10 09:19:08;;;;;;;56.67;36.17;;;;;;;;;;4970934;28;20081;-81
2023/10/10 09:21:50;;;;;;;56.50;38.42;;;;;;;;;;4955761;28;20045;-80
2023/10/10 09:24:27;;;;;;;55.50;38.53;;;;;;;;;;4974245;28;20034;-80
2023/10/10 09:26:56;;;;;;;57.53;39.38;;;;;;;;;;4977312;28;20574;-78
2023/10/10 09:29:34;;;;;;;55.03;39.33;;;;;;;;;;4969910;28;20022;-80
2023/10/10 09:32:01;;;;;;;61.78;39.15;;;;;;;;;;4986915;28;20079;-81
2023/10/10 09:34:35;;;;;;;54.28;37.15;;;;;;;;;;4975116;29;20042;-81
2023/10/10 09:37:07;;;;;;;52.58;36.50;;;;;;;;;;4965331;29;20035;-81
2023/10/10 09:39:41;;;;;;;54.83;37.22;;;;;;;;;;4951676;28;20061;-81
2023/10/10 09:50:37;;;;;;;51.25;32.90;;;;;;;;;;4960189;28;20043;-81
2023/10/10 09:53:07;;;;;;;;;;;;;;;;;;4973429;28;20023;-80
2023/10/10 09:58:00;;;;;;;42.90;30.60;;;;;;;;;;4973122;28;20094;-81
2023/10/10 10:00:45;;;;;;;45.15;30.55;;;;;;;;;;4971542;28;20058;-81
2023/10/10 10:03:31;;;;;;;41.83;28.05;;;;;;;;;;4971626;28;20045;-80
2023/10/10 10:09:14;;;;;;;42.13;26.70;;;;;;;;;;4964526;28;20031;-81
2023/10/10 10:11:46;;;;;;;39.85;28.08;;;;;;;;;;4958589;28;21236;-80
2023/10/10 10:14:25;;;;;;;40.75;27.45;;;;;;;;;;4972084;28;20031;-80
2023/10/10 10:17:12;;;;;;;40.42;27.23;;;;;;;;;;4982800;28;20018;-80
2023/10/10 10:19:45;;;;;;;42.33;27.50;;;;;;;;;;4983568;28;20058;-78
2023/10/10 10:22:21;;;;;;;40.05;27.92;;;;;;;;;;4976647;28;20070;-80
2023/10/10 10:24:47;;;;;;;44.38;29.38;;;;;;;;;;4966148;28;20042;-79
2023/10/10 10:27:31;;;;;;;45.83;29.65;;;;;;;;;;4948760;28;20027;-80
2023/10/10 10:30:18;;;;;;;49.28;30.55;;;;;;;;;;4946004;28;20027;-80
2023/10/10 10:32:46;;;;;;;49.35;31.38;;;;;;;;;;4966183;28;20031;-78
2023/10/10 10:35:19;;;;;;;43.90;31.33;;;;;;;;;;4961554;28;20117;-78
2023/10/10 10:37:54;;;;;;;48.53;32.00;;;;;;;;;;4962772;28;20027;-78
2023/10/10 10:43:05;;;;;;;48.10;33.50;;;;;;;;;;4944040;28;20027;-80
2023/10/10 10:45:36;;;;;;;47.05;33.00;;;;;;;;;;4950270;28;20106;-79
2023/10/10 10:48:17;;;;;;;47.35;31.20;;;;;;;;;;4950605;28;20078;-79
2023/10/10 10:50:45;;;;;;;43.92;30.77;;;;;;;;;;4946980;28;20063;-81
2023/10/10 10:53:50;;;;;;;48.42;32.25;;;;;;;;;;4951626;28;20056;-80
2023/10/10 11:01:24;;;;;;;45.75;31.80;;;;;;;;;;4976727;28;20036;-78
2023/10/10 11:03:53;;;;;;;47.42;31.88;;;;;;;;;;4983030;28;20031;-80
2023/10/10 11:06:20;;;;;;;43.78;30.08;;;;;;;;;;4969023;28;20058;-80
2023/10/10 11:14:00;;;;;;;49.08;32.90;;;;;;;;;;4974034;28;20057;-80
2023/10/10 11:16:39;;;;;;;47.15;28.70;;;;;;;;;;4953224;28;20154;-82
2023/10/10 11:19:18;;;;;;;40.35;26.73;;;;;;;;;;4968524;28;20034;-79
2023/10/10 11:21:48;;;;;;;41.92;27.48;;;;;;;;;;4970295;28;20066;-78
2023/10/10 11:24:25;;;;;;;40.47;25.17;;;;;;;;;;4967462;28;20031;-80
2023/10/10 11:27:17;;;;;;;42.67;27.35;;;;;;;;;;4968844;28;20340;-80
2023/10/10 11:32:45;;;;;;;45.97;25.45;;;;;;;;;;4970157;28;20061;-79
2023/10/10 11:37:47;;;;;;;43.42;26.67;;;;;;;;;;4954998;28;20150;-79
2023/10/10 11:40:30;;;;;;;43.67;25.45;;;;;;;;;;4971884;28;20141;-79
2023/10/10 11:43:11;;;;;;;50.45;26.80;;;;;;;;;;4974317;28;20027;-80
2023/10/10 11:45:40;;;;;;;44.22;26.90;;;;;;;;;;4949349;28;20472;-79
2023/10/10 11:48:13;;;;;;;39.85;25.88;;;;;;;;;;4979039;28;20023;-80
2023/10/10 11:50:43;;;;;;;36.30;24.33;;;;;;;;;;4986053;28;20300;-81
2023/10/10 11:53:12;;;;;;;46.63;24.98;;;;;;;;;;4986272;28;20041;-79
2023/10/10 11:55:41;;;;;;;39.08;24.75;;;;;;;;;;4979017;28;20429;-81
2023/10/10 11:58:08;;;;;;;35.28;24.17;;;;;;;;;;4937461;29;20039;-80
2023/10/10 12:00:43;;;;;;;39.67;24.23;;;;;;;;;;4974540;28;20101;-80
2023/10/10 12:03:13;;;;;;;36.70;23.65;;;;;;;;;;4953262;28;20118;-80
2023/10/10 12:05:49;;;;;;;37.78;23.73;;;;;;;;;;4954716;28;20031;-80
2023/10/10 12:08:22;;;;;;;43.13;23.40;;;;;;;;;;4955412;28;20073;-81
2023/10/10 12:10:52;;;;;;;32.40;22.00;;;;;;;;;;4922983;29;20067;-81
2023/10/10 12:16:07;;;;;;;43.47;20.30;;;;;;;;;;4974347;28;20057;-82
2023/10/10 12:18:34;;;;;;;31.73;20.10;;;;;;;;;;4966222;28;20047;-79
2023/10/10 12:21:03;;;;;;;30.58;19.00;;;;;;;;;;4964117;28;20511;-81
2023/10/10 12:23:32;;;;;;;36.50;19.90;;;;;;;;;;4953133;28;20094;-82
2023/10/10 12:25:59;;;;;;;35.88;20.75;;;;;;;;;;4951046;28;20110;-82
2023/10/10 12:28:26;;;;;;;32.78;19.80;;;;;;;;;;4976774;28;20070;-82
2023/10/10 12:30:56;;;;;;;34.13;20.83;;;;;;;;;;4985861;28;20015;-80
2023/10/10 12:33:24;;;;;;;44.70;19.65;;;;;;;;;;4991268;28;20033;-81
2023/10/10 12:35:50;;;;;;;28.83;18.02;;;;;;;;;;4978047;28;20089;-82
2023/10/10 12:38:32;;;;;;;31.73;19.55;;;;;;;;;;4973595;28;20030;-79
2023/10/10 12:40:58;;;;;;;30.23;20.40;;;;;;;;;;4941882;28;20070;-85
2023/10/10 12:43:25;;;;;;;38.00;20.55;;;;;;;;;;4929232;29;20055;-82
2023/10/10 12:45:54;;;;;;;35.97;21.15;;;;;;;;;;4968447;28;20062;-80
2023/10/10 12:48:20;;;;;;;33.63;20.25;;;;;;;;;;4963348;28;20027;-79
2023/10/10 12:50:51;;;;;;;37.15;20.35;;;;;;;;;;4966128;28;20130;-80
2023/10/10 12:53:21;;;;;;;37.13;20.17;;;;;;;;;;4965351;28;20038;-81
2023/10/10 12:56:03;;;;;;;34.05;17.98;;;;;;;;;;4965210;28;20097;-80
2023/10/10 12:58:30;;;;;;;31.15;16.95;;;;;;;;;;4966425;28;20039;-79
2023/10/10 13:00:58;;;;;;;32.20;17.77;;;;;;;;;;4969064;28;20055;-81
2023/10/10 13:03:29;;;;;;;25.80;16.25;;;;;;;;;;4980142;28;20015;-78
2023/10/10 13:06:00;;;;;;;31.00;18.08;;;;;;;;;;4973639;28;21465;-80
2023/10/10 13:08:38;;;;;;;30.17;17.75;;;;;;;;;;4970027;28;20033;-80
2023/10/10 13:11:12;;;;;;;30.13;17.92;;;;;;;;;;4975791;28;20137;-81
2023/10/10 13:13:45;;;;;;;31.27;17.80;;;;;;;;;;4980999;28;20050;-83
2023/10/10 13:16:23;;;;;;;27.52;18.00;;;;;;;;;;4967182;28;20027;-80
2023/10/10 13:18:53;;;;;;;31.70;17.85;;;;;;;;;;4980711;28;20511;-79
2023/10/10 13:21:19;;;;;;;34.55;18.40;;;;;;;;;;4962288;28;20035;-80
2023/10/10 13:23:49;;;;;;;33.72;19.60;;;;;;;;;;4936419;28;20027;-81
2023/10/10 13:26:25;;;;;;;29.13;20.05;;;;;;;;;;4952284;28;20053;-81
2023/10/10 13:28:51;;;;;;;34.47;19.48;;;;;;;;;;4966665;28;20034;-80
2023/10/10 13:31:18;;;;;;;31.35;20.40;;;;;;;;;;4946743;28;20488;-81
2023/10/10 13:33:47;;;;;;;30.83;19.73;;;;;;;;;;4946821;28;20031;-81
2023/10/10 13:36:16;;;;;;;30.50;19.67;;;;;;;;;;4967167;28;20039;-81
2023/10/10 13:38:48;;;;;;;27.70;19.30;;;;;;;;;;4966908;28;20034;-81
2023/10/10 13:41:19;;;;;;;32.55;19.02;;;;;;;;;;4965486;28;20030;-81
2023/10/10 13:43:46;;;;;;;37.40;20.23;;;;;;;;;;4965262;28;20054;-80
2023/10/10 13:46:13;;;;;;;37.05;20.92;;;;;;;;;;4943584;28;20035;-81
2023/10/10 13:48:39;;;;;;;41.80;20.30;;;;;;;;;;4972183;28;20015;-80
2023/10/10 13:51:07;;;;;;;33.92;19.52;;;;;;;;;;4952939;28;20027;-81
2023/10/10 13:53:34;;;;;;;36.65;20.58;;;;;;;;;;4946075;28;20326;-79
2023/10/10 13:56:01;;;;;;;35.00;19.42;;;;;;;;;;4953443;29;20323;-80
2023/10/10 13:58:28;;;;;;;34.03;19.98;;;;;;;;;;4945899;29;20569;-80
2023/10/10 14:01:10;;;;;;;43.20;20.45;;;;;;;;;;4931813;29;20122;-80
2023/10/10 14:03:36;;;;;;;35.08;19.70;;;;;;;;;;4946799;29;20043;-80
2023/10/10 14:06:10;;;;;;;33.05;19.33;;;;;;;;;;4928820;29;20047;-79
2023/10/10 14:08:36;;;;;;;39.08;19.42;;;;;;;;;;4936246;29;20035;-79
2023/10/10 14:11:04;;;;;;;32.80;18.60;;;;;;;;;;4936501;29;20023;-79
2023/10/10 14:13:30;;;;;;;32.45;18.38;;;;;;;;;;4954202;29;20094;-81
2023/10/10 14:15:57;;;;;;;28.92;17.75;;;;;;;;;;4935027;29;20147;-82
2023/10/10 14:18:45;;;;;;;30.00;16.35;;;;;;;;;;4937121;29;20023;-79
2023/10/10 14:21:12;;;;;;;32.05;17.05;;;;;;;;;;4945587;29;20035;-80
2023/10/10 14:23:39;;;;;;;33.22;16.30;;;;;;;;;;4935249;29;20035;-81
2023/10/10 14:26:25;;;;;;;33.03;16.42;;;;;;;;;;4958343;29;20027;-80
2023/10/10 14:28:52;;;;;;;28.65;15.13;;;;;;;;;;4954524;29;20043;-80
2023/10/10 14:31:21;;;;;;;31.85;16.13;;;;;;;;;;4978543;29;20134;-80
2023/10/10 14:33:47;;;;;;;31.58;15.60;;;;;;;;;;4962671;28;20131;-80
2023/10/10 14:36:15;;;;;;;29.38;15.13;;;;;;;;;;4935250;29;20120;-81
2023/10/10 14:38:44;;;;;;;27.83;14.25;;;;;;;;;;4942568;29;20062;-80
2023/10/10 14:41:17;;;;;;;32.92;14.68;;;;;;;;;;4952702;29;20111;-81
2023/10/10 14:43:54;;;;;;;28.38;13.15;;;;;;;;;;4948152;29;20044;-81
2023/10/10 14:46:27;;;;;;;25.05;13.27;;;;;;;;;;4948572;29;20070;-80
2023/10/10 14:49:41;;;;;;;26.15;13.85;;;;;;;;;;4951326;28;20452;-80
2023/10/10 14:51:40;;;;;;;30.13;13.95;;;;;;;;;;4952429;28;20042;-79
2023/10/10 14:54:17;;;;;;;25.25;13.32;;;;;;;;;;4947100;28;20053;-81
2023/10/10 14:56:46;;;;;;;25.17;13.45;;;;;;;;;;4968322;28;20105;-78
2023/10/10 14:59:19;;;;;;;28.90;13.13;;;;;;;;;;4966678;28;20041;-79
2023/10/10 15:01:48;;;;;;;31.45;13.40;;;;;;;;;;4968777;28;20027;-77
2023/10/10 15:04:21;;;;;;;27.60;12.82;;;;;;;;;;4960688;28;20079;-77
2023/10/10 15:06:48;;;;;;;24.17;14.48;;;;;;;;;;4964839;28;20111;-77
2023/10/10 15:09:19;;;;;;;28.88;15.25;;;;;;;;;;4966659;28;20030;-77
2023/10/10 15:11:45;;;;;;;;;;;;;;;;;;4977547;28;20031;-79
2023/10/10 15:14:12;;;;;;;24.63;14.73;;;;;;;;;;4984150;28;19914;-76
2023/10/10 15:16:39;;;;;;;27.10;15.50;;;;;;;;;;4956823;28;20065;-80
2023/10/10 15:19:08;;;;;;;26.02;15.00;;;;;;;;;;4971250;28;20082;-78
2023/10/10 15:21:35;;;;;;;27.90;15.37;;;;;;;;;;4965186;28;20118;-78
2023/10/10 15:24:11;;;;;;;33.88;14.85;;;;;;;;;;4965298;28;20370;-78
2023/10/10 15:26:37;;;;;;;32.17;14.98;;;;;;;;;;4950213;28;20260;-76
2023/10/10 15:29:04;;;;;;;26.45;15.18;;;;;;;;;;4968540;28;20061;-76
2023/10/10 15:31:31;;;;;;;32.80;15.90;;;;;;;;;;4966784;28;20099;-77
2023/10/10 15:33:57;;;;;;;25.98;15.32;;;;;;;;;;4969618;28;20035;-77
2023/10/10 15:36:24;;;;;;;31.05;16.02;;;;;;;;;;4970583;28;20046;-77
2023/10/10 15:38:50;;;;;;;28.30;14.73;;;;;;;;;;4980153;28;20027;-78
2023/10/10 15:41:20;;;;;;;28.05;15.77;;;;;;;;;;4980157;28;20022;-78
2023/10/10 15:43:47;;;;;;;31.50;16.13;;;;;;;;;;4969543;28;20035;-79
2023/10/10 15:46:16;;;;;;;45.92;17.02;;;;;;;;;;4966697;28;20031;-78
2023/10/10 15:48:48;;;;;;;28.83;16.02;;;;;;;;;;4971268;28;20026;-79
2023/10/10 15:51:20;;;;;;;31.95;16.75;;;;;;;;;;4965058;28;20046;-80
2023/10/10 15:53:47;;;;;;;32.20;16.08;;;;;;;;;;4960112;28;20115;-80
2023/10/10 15:56:17;;;;;;;33.55;17.08;;;;;;;;;;4980148;28;20042;-77
2023/10/10 15:58:43;;;;;;;25.33;16.90;;;;;;;;;;4950963;28;20589;-78
2023/10/10 16:01:21;;;;;;;26.33;15.80;;;;;;;;;;4965787;28;20058;-79
2023/10/10 16:03:55;;;;;;;26.10;15.90;;;;;;;;;;4966114;28;20410;-79
2023/10/10 16:06:22;;;;;;;26.73;16.15;;;;;;;;;;4964130;28;20045;-79
2023/10/10 16:08:52;;;;;;;34.25;16.88;;;;;;;;;;4970881;28;20042;-78
2023/10/10 16:11:18;;;;;;;31.50;15.90;;;;;;;;;;4971958;28;20026;-78
2023/10/10 16:13:46;;;;;;;25.08;15.35;;;;;;;;;;4984381;28;20031;-80
2023/10/10 16:16:13;;;;;;;26.02;15.75;;;;;;;;;;4979187;28;20049;-77
2023/10/10 16:18:40;;;;;;;28.98;15.98;;;;;;;;;;4963103;28;20110;-83
2023/10/10 16:21:08;;;;;;;29.80;14.45;;;;;;;;;;4965453;28;20168;-78
2023/10/10 16:23:37;;;;;;;27.88;14.70;;;;;;;;;;4970883;28;20050;-77
2023/10/10 16:26:06;;;;;;;32.17;15.60;;;;;;;;;;4962477;28;20028;-85
2023/10/10 16:28:35;;;;;;;28.08;14.50;;;;;;;;;;4965709;28;20030;-78
2023/10/10 16:31:10;;;;;;;28.75;15.10;;;;;;;;;;4942146;28;20415;-80
2023/10/10 16:33:37;;;;;;;35.95;15.55;;;;;;;;;;4964854;28;20610;-80
2023/10/10 16:36:17;;;;;;;23.48;13.93;;;;;;;;;;4977066;28;20106;-78
2023/10/10 16:38:49;;;;;;;22.38;13.48;;;;;;;;;;4975259;28;20046;-79
2023/10/10 16:41:19;;;;;;;26.95;14.35;;;;;;;;;;4965859;28;20035;-80
2023/10/10 16:43:48;;;;;;;25.50;14.52;;;;;;;;;;4951173;28;20029;-79
2023/10/10 16:46:15;;;;;;;31.42;14.25;;;;;;;;;;4951554;28;20023;-79
2023/10/10 16:48:42;;;;;;;29.58;13.90;;;;;;;;;;4965132;28;20074;-78
2023/10/10 16:51:09;;;;;;;26.15;13.27;;;;;;;;;;4964328;28;20051;-79
2023/10/10 16:53:43;;;;;;;32.17;12.77;;;;;;;;;;4969711;28;20130;-79
2023/10/10 16:56:14;;;;;;;26.77;13.27;;;;;;;;;;4967076;28;20110;-80
2023/10/10 16:58:41;;;;;;;24.45;12.73;;;;;;;;;;4969941;28;20035;-79
2023/10/10 17:01:17;;;;;;;24.42;12.95;;;;;;;;;;4967731;28;20125;-79
2023/10/10 17:03:44;;;;;;;23.20;12.95;;;;;;;;;;4969421;28;20031;-78
2023/10/10 17:06:11;;;;;;;32.85;13.43;;;;;;;;;;4958326;28;20106;-78
2023/10/10 17:08:37;;;;;;;24.02;11.95;;;;;;;;;;4950492;28;20465;-80
2023/10/10 17:11:14;;;;;;;21.65;13.20;;;;;;;;;;4947274;28;20531;-80
2023/10/10 17:13:41;;;;;;;27.30;15.05;;;;;;;;;;4948154;28;20562;-78
2023/10/10 17:16:11;;;;;;;22.70;13.10;;;;;;;;;;4957857;28;20047;-80
2023/10/10 17:18:43;;;;;;;22.63;14.07;;;;;;;;;;4979140;28;20011;-77
2023/10/10 17:21:12;;;;;;;25.58;14.65;;;;;;;;;;4965028;28;20043;-80
2023/10/10 17:23:42;;;;;;;34.38;15.55;;;;;;;;;;4970730;28;20395;-81
2023/10/10 17:26:11;;;;;;;29.52;14.73;;;;;;;;;;4949023;28;20039;-86
2023/10/10 17:28:38;;;;;;;34.17;14.35;;;;;;;;;;4949809;28;20027;-81
2023/10/10 17:31:05;;;;;;;31.50;13.48;;;;;;;;;;4968182;28;20472;-83
2023/10/10 17:33:39;;;;;;;25.58;14.45;;;;;;;;;;4965593;28;20038;-82